• Join FlightAware (Why Join?)
  • Login
  • US Flag 
03:41AM EST


 

Airport Tracker/Info


-or-


 

Live Flight TrackerFlight Track Log ✈ CSH9127 ✈ 04-Oct-2013 ✈ ZBHH / HET - ZBLA / HLD

Flight Track Log - Related Links

Times and Time Zones

All times are in EDT time to prevent confusion due to time zone crossing. See the CSH9127 flight status page for this flight to view local times or setup timezone preferences in your user account.

Time Position Orientation Groundspeed Altitude Reporting Facility
EDT Latitude Longitude Course Direction KTS MPH feet Rate Location/Type
03:11AM 41.3571 112.2346 31° Northeast  Level Estimated
03:12AM 41.4292 112.2938 32° Northeast  Level Estimated
03:13AM 41.5013 112.3531 32° Northeast  Level Estimated
03:14AM 41.5733 112.4125 32° Northeast  Level Estimated
03:15AM 41.6454 112.4721 32° Northeast  Level Estimated
03:16AM 41.7174 112.5318 32° Northeast  Level Estimated
03:17AM 41.7893 112.5916 32° Northeast  Level Estimated
03:18AM 41.8612 112.6516 32° Northeast  Level Estimated
03:19AM 41.9331 112.7117 32° Northeast  Level Estimated
03:20AM 42.0050 112.7719 32° Northeast  Level Estimated
03:21AM 42.0769 112.8323 32° Northeast  Level Estimated
03:22AM 42.1487 112.8928 32° Northeast  Level Estimated
03:23AM 42.2204 112.9534 32° Northeast  Level Estimated
03:24AM 42.2922 113.0142 32° Northeast  Level Estimated
03:25AM 42.3639 113.0751 32° Northeast  Level Estimated
03:26AM 42.4356 113.1362 32° Northeast  Level Estimated
03:27AM 42.5072 113.1974 32° Northeast  Level Estimated
03:28AM 42.5788 113.2587 32° Northeast  Level Estimated
03:29AM 42.6504 113.3202 32° Northeast  Level Estimated
03:30AM 42.7219 113.3818 32° Northeast  Level Estimated
03:31AM 42.7934 113.4436 32° Northeast  Level Estimated
03:32AM 42.8649 113.5055 32° Northeast  Level Estimated
03:33AM 42.9364 113.5676 32° Northeast  Level Estimated
03:34AM 43.0078 113.6298 32° Northeast  Level Estimated
03:35AM 43.0792 113.6921 33° Northeast  Level Estimated
03:36AM 43.1505 113.7546 33° Northeast  Level Estimated
03:37AM 43.2218 113.8172 33° Northeast  Level Estimated
03:38AM 43.2931 113.8800 33° Northeast  Level Estimated
03:39AM 43.3643 113.9429 33° Northeast  Level Estimated
03:40AM 43.4356 114.0060 33° Northeast  Level Estimated
03:41AM 43.5067 114.0692 33° Northeast  Level Estimated
03:42AM 43.5779 114.1326 33° Northeast  Level Estimated
03:43AM 43.6490 114.1961 33° Northeast  Level Estimated
03:44AM 43.7200 114.2598 33° Northeast  Level Estimated
03:45AM 43.7911 114.3236 33° Northeast  Level Estimated
03:46AM 43.8621 114.3876 33° Northeast  Level Estimated
03:47AM 43.9330 114.4517 33° Northeast  Level Estimated
03:48AM 44.0040 114.5160 33° Northeast  Level Estimated
03:49AM 44.0748 114.5804 33° Northeast  Level Estimated
03:50AM 44.1457 114.6450 33° Northeast  Level Estimated
03:51AM 44.2165 114.7098 33° Northeast  Level Estimated
03:52AM 44.2873 114.7747 33° Northeast  Level Estimated
03:53AM 44.3580 114.8397 33° Northeast  Level Estimated
03:54AM 44.4287 114.9049 33° Northeast  Level Estimated
03:55AM 44.4994 114.9703 33° Northeast  Level Estimated
03:56AM 44.5700 115.0358 33° Northeast  Level Estimated
03:57AM 44.6406 115.1015 34° Northeast  Level Estimated
03:58AM 44.7112 115.1674 34° Northeast  Level Estimated
03:59AM 44.7817 115.2334 34° Northeast  Level Estimated
04:00AM 44.8522 115.2996 34° Northeast  Level Estimated
04:01AM 44.9226 115.3659 34° Northeast  Level Estimated
04:02AM 44.9930 115.4324 34° Northeast  Level Estimated
04:03AM 45.0634 115.4990 34° Northeast  Level Estimated
04:04AM 45.1337 115.5659 34° Northeast  Level Estimated
04:05AM 45.2040 115.6329 34° Northeast  Level Estimated
04:06AM 45.2743 115.7000 34° Northeast  Level Estimated
04:07AM 45.3445 115.7673 34° Northeast  Level Estimated
04:08AM 45.4146 115.8348 34° Northeast  Level Estimated
04:09AM 45.4848 115.9025 34° Northeast  Level Estimated
04:10AM 45.5549 115.9703 34° Northeast  Level Estimated
04:11AM 45.6249 116.0383 34° Northeast  Level Estimated
04:12AM 45.6949 116.1065 34° Northeast  Level Estimated
04:13AM 45.7649 116.1748 34° Northeast  Level Estimated
04:14AM 45.8348 116.2433 34° Northeast  Level Estimated
04:15AM 45.9047 116.3120 34° Northeast  Level Estimated
04:16AM 45.9746 116.3809 34° Northeast  Level Estimated
04:17AM 46.0444 116.4499 34° Northeast  Level Estimated
04:18AM 46.1141 116.5191 35° Northeast  Level Estimated
04:19AM 46.1838 116.5885 35° Northeast  Level Estimated
04:20AM 46.2535 116.6580 35° Northeast  Level Estimated
04:21AM 46.3232 116.7278 35° Northeast  Level Estimated
04:22AM 46.3927 116.7977 35° Northeast  Level Estimated
04:23AM 46.4623 116.8678 35° Northeast  Level Estimated
04:24AM 46.5318 116.9380 35° Northeast  Level Estimated
04:25AM 46.6013 117.0085 35° Northeast  Level Estimated
04:26AM 46.6707 117.0791 35° Northeast  Level Estimated
04:27AM 46.7401 117.1499 35° Northeast  Level Estimated
04:28AM 46.8094 117.2209 35° Northeast  Level Estimated
04:29AM 46.8787 117.2921 35° Northeast  Level Estimated
04:30AM 46.9479 117.3634 35° Northeast  Level Estimated
04:31AM 47.0171 117.4350 35° Northeast  Level Estimated
04:32AM 47.0863 117.5067 35° Northeast  Level Estimated
04:33AM 47.1554 117.5786 35° Northeast  Level Estimated
04:34AM 47.2245 117.6507 35° Northeast  Level Estimated
04:35AM 47.2935 117.7230 35° Northeast  Level Estimated
04:36AM 47.3624 117.7955 35° Northeast  Level Estimated
04:37AM 47.4314 117.8682 35° Northeast  Level Estimated
04:38AM 47.5003 117.9410 36° Northeast  Level Estimated
04:39AM 47.5691 118.0141 36° Northeast  Level Estimated
04:40AM 47.6379 118.0873 36° Northeast  Level Estimated
04:41AM 47.7066 118.1608 36° Northeast  Level Estimated
04:42AM 47.7753 118.2344 36° Northeast  Level Estimated
04:43AM 47.8440 118.3082 36° Northeast  Level Estimated
04:44AM 47.9126 118.3822 36° Northeast  Level Estimated
04:45AM 47.9811 118.4564 36° Northeast  Level Estimated
04:46AM 48.0496 118.5309 36° Northeast  Level Estimated
04:47AM 48.1181 118.6055 36° Northeast  Level Estimated
04:48AM 48.1865 118.6803 36° Northeast  Level Estimated
04:49AM 48.2549 118.7553 36° Northeast  Level Estimated
04:50AM 48.3232 118.8305 36° Northeast  Level Estimated
04:51AM 48.3914 118.9059 36° Northeast  Level Estimated
04:52AM 48.4596 118.9815 36° Northeast  Level Estimated
04:53AM 48.5278 119.0573 36° Northeast  Level Estimated
04:54AM 48.5959 119.1334 36° Northeast  Level Estimated
04:55AM 48.6640 119.2096 36° Northeast  Level Estimated
04:56AM 48.7320 119.2860 37° Northeast  Level Estimated
04:57AM 48.7999 119.3627 37° Northeast  Level Estimated
04:58AM 48.8679 119.4395 37° Northeast  Level Estimated
04:59AM 48.9357 119.5166 37° Northeast  Level Estimated
05:00AM 49.0035 119.5938 37° Northeast  Level Estimated
05:01AM 49.0713 119.6713 37° Northeast  Level Estimated
05:02AM 49.1390 119.7490 37° Northeast  Level Estimated
05:03AM 49.2050 119.8250 37° Northeast  Level Estimated